Panagia — V2OQ5 — position and weather

sailwx.info

Track history (hours):
 
Tides and Currents Weather Stations Pressure Air Temp Water Temp Dewpoint Dewpoint Depression Visibility Wind Speed Wind Dir Waves Ship Positions

Panagia

Last reported at 2015-Feb-27 06:18 UTC. Time now 2015-Feb-27 22:46 UTC.
Position N 01°47' E 102°39'.

Length 120 m; draft 7.3 m.

Type: Cargo ship. MMSI: 304610000.

Date/timePositionNaut miles runAvg speedWind from/ knotsBaromVisibWave heightAir tempDewpointWater temp
2015-Feb-27 06:18N 01°47' E 102°39'71 2.3
2015-Feb-25 23:25N 01°18' E 103°43'0 0.0
2015-Feb-24 23:08N 01°18' E 103°43'2 3.4
2015-Feb-24 22:33N 01°17' E 103°45'5 4.1
2015-Feb-24 21:25N 01°14' E 103°49'0 0.0
2015-Feb-24 14:13N 01°14' E 103°49'0 0.0
2015-Feb-24 13:07N 01°14' E 103°49'0 0.0
2015-Feb-23 23:18N 01°14' E 103°49'0 0.0
2015-Feb-23 14:29N 01°14' E 103°49'0 0.0
2015-Feb-23 13:31N 01°14' E 103°49'0 0.0
2015-Feb-23 03:26N 01°14' E 103°49'0 0.1
2015-Feb-23 02:31N 01°14' E 103°49'  
Track history (hours):
 
Tides and Currents Weather Stations Pressure Air Temp Water Temp Dewpoint Dewpoint Depression Visibility Wind Speed Wind Dir Waves Ship Positions

Panagia

Last reported at 2015-Feb-27 06:18 UTC. Time now 2015-Feb-27 22:46 UTC.
Position N 01°47' E 102°39'.

Length 120 m; draft 7.3 m.

Type: Cargo ship. MMSI: 304610000.

Date/timePositionNaut miles runAvg speedWind from/ knotsBaromVisibWave heightAir tempDewpointWater temp
2015-Feb-27 06:18N 01°47' E 102°39'71 2.3
2015-Feb-25 23:25N 01°18' E 103°43'0 0.0
2015-Feb-24 23:08N 01°18' E 103°43'2 3.4
2015-Feb-24 22:33N 01°17' E 103°45'5 4.1
2015-Feb-24 21:25N 01°14' E 103°49'0 0.0
2015-Feb-24 14:13N 01°14' E 103°49'0 0.0
2015-Feb-24 13:07N 01°14' E 103°49'0 0.0
2015-Feb-23 23:18N 01°14' E 103°49'0 0.0
2015-Feb-23 14:29N 01°14' E 103°49'0 0.0
2015-Feb-23 13:31N 01°14' E 103°49'0 0.0
2015-Feb-23 03:26N 01°14' E 103°49'0 0.1
2015-Feb-23 02:31N 01°14' E 103°49'  

Dump ship's entire track history